sensor_id;sensor_type;location;lat;lon;timestamp;P1;durP1;ratioP1;P2;durP2;ratioP2
17662;SDS011;8950;56.892;15.090;2023-04-24T00:02:19;11.20;;;6.93;;
17662;SDS011;8950;56.892;15.090;2023-04-24T00:04:45;8.80;;;8.10;;
17662;SDS011;8950;56.892;15.090;2023-04-24T00:07:12;7.88;;;7.20;;
17662;SDS011;8950;56.892;15.090;2023-04-24T00:09:39;9.65;;;7.38;;
17662;SDS011;8950;56.892;15.090;2023-04-24T00:12:07;8.65;;;7.53;;
17662;SDS011;8950;56.892;15.090;2023-04-24T00:14:33;8.13;;;7.40;;
17662;SDS011;8950;56.892;15.090;2023-04-24T00:17:00;19.10;;;7.45;;
17662;SDS011;8950;56.892;15.090;2023-04-24T00:19:27;9.55;;;7.28;;
17662;SDS011;8950;56.892;15.090;2023-04-24T00:21:54;8.82;;;7.30;;
17662;SDS011;8950;56.892;15.090;2023-04-24T00:24:20;8.18;;;7.47;;
17662;SDS011;8950;56.892;15.090;2023-04-24T00:26:47;7.38;;;6.75;;
17662;SDS011;8950;56.892;15.090;2023-04-24T00:29:15;8.80;;;7.72;;
17662;SDS011;8950;56.892;15.090;2023-04-24T00:31:41;18.55;;;7.88;;
17662;SDS011;8950;56.892;15.090;2023-04-24T00:34:07;13.02;;;7.90;;
17662;SDS011;8950;56.892;15.090;2023-04-24T00:36:35;8.00;;;7.40;;
17662;SDS011;8950;56.892;15.090;2023-04-24T00:39:01;8.27;;;7.68;;
17662;SDS011;8950;56.892;15.090;2023-04-24T00:41:28;13.95;;;8.20;;
17662;SDS011;8950;56.892;15.090;2023-04-24T00:43:55;9.50;;;7.80;;
17662;SDS011;8950;56.892;15.090;2023-04-24T00:46:23;11.38;;;7.95;;
17662;SDS011;8950;56.892;15.090;2023-04-24T00:48:49;15.00;;;8.18;;
17662;SDS011;8950;56.892;15.090;2023-04-24T00:51:16;8.95;;;8.15;;
17662;SDS011;8950;56.892;15.090;2023-04-24T00:53:43;14.85;;;9.05;;
17662;SDS011;8950;56.892;15.090;2023-04-24T00:56:09;9.77;;;8.77;;
17662;SDS011;8950;56.892;15.090;2023-04-24T00:58:36;9.43;;;8.73;;
17662;SDS011;8950;56.892;15.090;2023-04-24T01:01:02;9.43;;;8.63;;
17662;SDS011;8950;56.892;15.090;2023-04-24T01:03:33;9.15;;;8.35;;
17662;SDS011;8950;56.892;15.090;2023-04-24T01:06:01;10.13;;;9.13;;
17662;SDS011;8950;56.892;15.090;2023-04-24T01:08:28;17.63;;;9.60;;
17662;SDS011;8950;56.892;15.090;2023-04-24T01:10:55;12.38;;;9.38;;
17662;SDS011;8950;56.892;15.090;2023-04-24T01:13:22;10.38;;;9.18;;
17662;SDS011;8950;56.892;15.090;2023-04-24T01:15:49;10.05;;;9.25;;
17662;SDS011;8950;56.892;15.090;2023-04-24T01:18:15;10.20;;;9.35;;
17662;SDS011;8950;56.892;15.090;2023-04-24T01:20:43;10.38;;;9.43;;
17662;SDS011;8950;56.892;15.090;2023-04-24T01:23:13;11.73;;;10.52;;
17662;SDS011;8950;56.892;15.090;2023-04-24T01:25:40;10.98;;;10.07;;
17662;SDS011;8950;56.892;15.090;2023-04-24T01:28:06;11.88;;;10.88;;
17662;SDS011;8950;56.892;15.090;2023-04-24T01:30:33;11.77;;;10.77;;
17662;SDS011;8950;56.892;15.090;2023-04-24T01:32:59;11.18;;;10.18;;
17662;SDS011;8950;56.892;15.090;2023-04-24T01:35:26;11.63;;;10.63;;
17662;SDS011;8950;56.892;15.090;2023-04-24T01:37:53;11.60;;;10.63;;
17662;SDS011;8950;56.892;15.090;2023-04-24T01:40:21;11.93;;;10.85;;
17662;SDS011;8950;56.892;15.090;2023-04-24T01:42:47;11.70;;;10.70;;
17662;SDS011;8950;56.892;15.090;2023-04-24T01:45:13;13.77;;;12.60;;
17662;SDS011;8950;56.892;15.090;2023-04-24T01:47:40;11.98;;;10.98;;
17662;SDS011;8950;56.892;15.090;2023-04-24T01:50:07;12.20;;;11.13;;
17662;SDS011;8950;56.892;15.090;2023-04-24T01:52:34;16.42;;;11.90;;
17662;SDS011;8950;56.892;15.090;2023-04-24T01:55:01;16.10;;;11.35;;
17662;SDS011;8950;56.892;15.090;2023-04-24T01:57:29;16.08;;;11.38;;
17662;SDS011;8950;56.892;15.090;2023-04-24T01:59:56;14.18;;;9.80;;
17662;SDS011;8950;56.892;15.090;2023-04-24T02:02:22;13.65;;;11.35;;
17662;SDS011;8950;56.892;15.090;2023-04-24T02:04:49;12.68;;;11.50;;
17662;SDS011;8950;56.892;15.090;2023-04-24T02:07:16;11.35;;;10.23;;
17662;SDS011;8950;56.892;15.090;2023-04-24T02:09:42;12.95;;;11.23;;
17662;SDS011;8950;56.892;15.090;2023-04-24T02:12:08;18.27;;;11.10;;
17662;SDS011;8950;56.892;15.090;2023-04-24T02:14:36;12.52;;;11.38;;
17662;SDS011;8950;56.892;15.090;2023-04-24T02:17:03;11.63;;;10.60;;
17662;SDS011;8950;56.892;15.090;2023-04-24T02:19:30;12.25;;;11.15;;
17662;SDS011;8950;56.892;15.090;2023-04-24T02:21:56;12.02;;;11.02;;
17662;SDS011;8950;56.892;15.090;2023-04-24T02:24:22;12.57;;;10.18;;
17662;SDS011;8950;56.892;15.090;2023-04-24T02:26:49;11.15;;;10.00;;
17662;SDS011;8950;56.892;15.090;2023-04-24T02:29:15;12.10;;;10.85;;
17662;SDS011;8950;56.892;15.090;2023-04-24T02:31:44;11.95;;;10.57;;
17662;SDS011;8950;56.892;15.090;2023-04-24T02:34:10;11.63;;;10.52;;
17662;SDS011;8950;56.892;15.090;2023-04-24T02:36:37;11.15;;;10.02;;
17662;SDS011;8950;56.892;15.090;2023-04-24T02:39:03;11.68;;;10.57;;
17662;SDS011;8950;56.892;15.090;2023-04-24T02:41:30;12.70;;;11.50;;
17662;SDS011;8950;56.892;15.090;2023-04-24T02:43:57;10.65;;;9.82;;
17662;SDS011;8950;56.892;15.090;2023-04-24T02:46:24;14.73;;;10.77;;
17662;SDS011;8950;56.892;15.090;2023-04-24T02:48:52;11.65;;;10.68;;
17662;SDS011;8950;56.892;15.090;2023-04-24T02:51:18;11.13;;;10.07;;
17662;SDS011;8950;56.892;15.090;2023-04-24T02:53:45;11.02;;;9.98;;
17662;SDS011;8950;56.892;15.090;2023-04-24T02:56:11;11.00;;;8.88;;
17662;SDS011;8950;56.892;15.090;2023-04-24T02:58:38;11.07;;;9.98;;
17662;SDS011;8950;56.892;15.090;2023-04-24T03:01:04;10.20;;;8.48;;
17662;SDS011;8950;56.892;15.090;2023-04-24T03:03:31;12.45;;;8.52;;
17662;SDS011;8950;56.892;15.090;2023-04-24T03:05:59;14.98;;;8.30;;
17662;SDS011;8950;56.892;15.090;2023-04-24T03:08:25;9.48;;;7.80;;
17662;SDS011;8950;56.892;15.090;2023-04-24T03:10:52;10.13;;;8.43;;
17662;SDS011;8950;56.892;15.090;2023-04-24T03:13:18;9.98;;;8.25;;
17662;SDS011;8950;56.892;15.090;2023-04-24T03:15:45;15.77;;;8.15;;
17662;SDS011;8950;56.892;15.090;2023-04-24T03:18:12;10.20;;;6.95;;
17662;SDS011;8950;56.892;15.090;2023-04-24T03:20:38;11.45;;;7.57;;
17662;SDS011;8950;56.892;15.090;2023-04-24T03:23:06;11.13;;;6.95;;
17662;SDS011;8950;56.892;15.090;2023-04-24T03:25:32;10.88;;;7.22;;
17662;SDS011;8950;56.892;15.090;2023-04-24T03:27:59;13.35;;;7.03;;
17662;SDS011;8950;56.892;15.090;2023-04-24T03:30:25;10.40;;;7.18;;
17662;SDS011;8950;56.892;15.090;2023-04-24T03:32:52;8.20;;;6.82;;
17662;SDS011;8950;56.892;15.090;2023-04-24T03:35:18;8.43;;;6.72;;
17662;SDS011;8950;56.892;15.090;2023-04-24T03:37:46;7.53;;;6.78;;
17662;SDS011;8950;56.892;15.090;2023-04-24T03:40:14;9.50;;;6.75;;
17662;SDS011;8950;56.892;15.090;2023-04-24T03:42:40;9.25;;;6.78;;
17662;SDS011;8950;56.892;15.090;2023-04-24T03:45:07;8.85;;;6.57;;
17662;SDS011;8950;56.892;15.090;2023-04-24T03:47:34;6.43;;;5.80;;
17662;SDS011;8950;56.892;15.090;2023-04-24T03:50:00;7.18;;;6.47;;
17662;SDS011;8950;56.892;15.090;2023-04-24T03:52:27;43.17;;;5.68;;
17662;SDS011;8950;56.892;15.090;2023-04-24T03:54:53;15.73;;;6.13;;
17662;SDS011;8950;56.892;15.090;2023-04-24T03:57:21;8.15;;;5.32;;
17662;SDS011;8950;56.892;15.090;2023-04-24T03:59:48;10.95;;;5.90;;
17662;SDS011;8950;56.892;15.090;2023-04-24T04:02:14;10.98;;;5.75;;
17662;SDS011;8950;56.892;15.090;2023-04-24T04:04:41;8.38;;;6.13;;
17662;SDS011;8950;56.892;15.090;2023-04-24T04:07:07;11.93;;;6.25;;
17662;SDS011;8950;56.892;15.090;2023-04-24T04:09:34;8.90;;;6.43;;
17662;SDS011;8950;56.892;15.090;2023-04-24T04:12:00;6.85;;;6.13;;
17662;SDS011;8950;56.892;15.090;2023-04-24T04:14:28;7.45;;;6.07;;
17662;SDS011;8950;56.892;15.090;2023-04-24T04:16:54;11.05;;;5.90;;
17662;SDS011;8950;56.892;15.090;2023-04-24T04:19:21;6.40;;;5.70;;
17662;SDS011;8950;56.892;15.090;2023-04-24T04:21:47;7.72;;;5.88;;
17662;SDS011;8950;56.892;15.090;2023-04-24T04:24:17;23.15;;;6.30;;
17662;SDS011;8950;56.892;15.090;2023-04-24T04:26:45;14.80;;;5.82;;
17662;SDS011;8950;56.892;15.090;2023-04-24T04:29:12;6.22;;;5.82;;
17662;SDS011;8950;56.892;15.090;2023-04-24T04:31:39;6.53;;;5.93;;
17662;SDS011;8950;56.892;15.090;2023-04-24T04:34:06;6.28;;;5.72;;
17662;SDS011;8950;56.892;15.090;2023-04-24T04:36:32;6.43;;;5.40;;
17662;SDS011;8950;56.892;15.090;2023-04-24T04:39:01;5.75;;;5.28;;
17662;SDS011;8950;56.892;15.090;2023-04-24T04:41:29;13.10;;;5.05;;
17662;SDS011;8950;56.892;15.090;2023-04-24T04:43:55;7.90;;;4.88;;
17662;SDS011;8950;56.892;15.090;2023-04-24T04:46:23;5.90;;;5.40;;
17662;SDS011;8950;56.892;15.090;2023-04-24T04:48:52;5.85;;;5.22;;
17662;SDS011;8950;56.892;15.090;2023-04-24T04:51:19;5.40;;;4.90;;
17662;SDS011;8950;56.892;15.090;2023-04-24T04:53:45;5.65;;;5.13;;
17662;SDS011;8950;56.892;15.090;2023-04-24T04:56:12;5.55;;;5.05;;
17662;SDS011;8950;56.892;15.090;2023-04-24T04:58:38;5.75;;;4.95;;
17662;SDS011;8950;56.892;15.090;2023-04-24T05:01:05;8.95;;;5.20;;
17662;SDS011;8950;56.892;15.090;2023-04-24T05:03:32;11.85;;;4.93;;
17662;SDS011;8950;56.892;15.090;2023-04-24T05:06:00;13.73;;;5.05;;
17662;SDS011;8950;56.892;15.090;2023-04-24T05:08:27;13.05;;;5.22;;
17662;SDS011;8950;56.892;15.090;2023-04-24T05:10:53;12.88;;;5.18;;
17662;SDS011;8950;56.892;15.090;2023-04-24T05:13:20;13.90;;;5.72;;
17662;SDS011;8950;56.892;15.090;2023-04-24T05:15:46;5.63;;;5.22;;
17662;SDS011;8950;56.892;15.090;2023-04-24T05:18:13;6.00;;;5.40;;
17662;SDS011;8950;56.892;15.090;2023-04-24T05:20:40;5.72;;;5.32;;
17662;SDS011;8950;56.892;15.090;2023-04-24T05:23:10;5.40;;;5.10;;
17662;SDS011;8950;56.892;15.090;2023-04-24T05:25:36;6.07;;;5.68;;
17662;SDS011;8950;56.892;15.090;2023-04-24T05:28:05;6.18;;;5.70;;
17662;SDS011;8950;56.892;15.090;2023-04-24T05:30:31;5.80;;;5.40;;
17662;SDS011;8950;56.892;15.090;2023-04-24T05:32:58;6.03;;;5.55;;
17662;SDS011;8950;56.892;15.090;2023-04-24T05:35:24;5.65;;;5.28;;
17662;SDS011;8950;56.892;15.090;2023-04-24T05:37:51;5.95;;;5.55;;
17662;SDS011;8950;56.892;15.090;2023-04-24T05:40:19;6.32;;;5.88;;
17662;SDS011;8950;56.892;15.090;2023-04-24T05:42:45;6.43;;;6.00;;
17662;SDS011;8950;56.892;15.090;2023-04-24T05:45:11;6.15;;;5.75;;
17662;SDS011;8950;56.892;15.090;2023-04-24T05:47:41;5.95;;;5.55;;
17662;SDS011;8950;56.892;15.090;2023-04-24T05:50:08;6.32;;;5.82;;
17662;SDS011;8950;56.892;15.090;2023-04-24T05:52:35;6.10;;;5.68;;
17662;SDS011;8950;56.892;15.090;2023-04-24T05:55:01;6.70;;;6.20;;
17662;SDS011;8950;56.892;15.090;2023-04-24T05:57:29;6.15;;;5.75;;
17662;SDS011;8950;56.892;15.090;2023-04-24T05:59:56;6.53;;;6.03;;
17662;SDS011;8950;56.892;15.090;2023-04-24T06:02:22;7.13;;;6.53;;
17662;SDS011;8950;56.892;15.090;2023-04-24T06:04:48;7.25;;;6.70;;
17662;SDS011;8950;56.892;15.090;2023-04-24T06:07:15;6.88;;;6.32;;
17662;SDS011;8950;56.892;15.090;2023-04-24T06:09:41;6.65;;;6.15;;
17662;SDS011;8950;56.892;15.090;2023-04-24T06:12:08;6.90;;;6.40;;
17662;SDS011;8950;56.892;15.090;2023-04-24T06:14:35;7.22;;;6.63;;
17662;SDS011;8950;56.892;15.090;2023-04-24T06:17:02;6.97;;;6.47;;
17662;SDS011;8950;56.892;15.090;2023-04-24T06:19:28;7.22;;;6.70;;
17662;SDS011;8950;56.892;15.090;2023-04-24T06:21:55;7.82;;;7.13;;
17662;SDS011;8950;56.892;15.090;2023-04-24T06:24:21;7.93;;;7.32;;
17662;SDS011;8950;56.892;15.090;2023-04-24T06:26:47;7.68;;;7.07;;
17662;SDS011;8950;56.892;15.090;2023-04-24T06:29:14;7.85;;;7.25;;
17662;SDS011;8950;56.892;15.090;2023-04-24T06:31:42;8.23;;;7.43;;
17662;SDS011;8950;56.892;15.090;2023-04-24T06:34:08;8.20;;;7.40;;
17662;SDS011;8950;56.892;15.090;2023-04-24T06:36:35;8.70;;;7.93;;
17662;SDS011;8950;56.892;15.090;2023-04-24T06:39:01;8.43;;;7.72;;
17662;SDS011;8950;56.892;15.090;2023-04-24T06:41:28;8.13;;;7.50;;
17662;SDS011;8950;56.892;15.090;2023-04-24T06:43:54;8.60;;;7.90;;
17662;SDS011;8950;56.892;15.090;2023-04-24T06:46:21;12.15;;;8.10;;
17662;SDS011;8950;56.892;15.090;2023-04-24T06:48:50;8.68;;;8.00;;
17662;SDS011;8950;56.892;15.090;2023-04-24T06:51:16;8.20;;;7.50;;
17662;SDS011;8950;56.892;15.090;2023-04-24T06:53:43;8.35;;;7.57;;
17662;SDS011;8950;56.892;15.090;2023-04-24T06:56:10;8.80;;;8.00;;
17662;SDS011;8950;56.892;15.090;2023-04-24T06:58:36;9.00;;;8.18;;
17662;SDS011;8950;56.892;15.090;2023-04-24T07:01:03;10.05;;;8.90;;
17662;SDS011;8950;56.892;15.090;2023-04-24T07:03:30;8.68;;;7.93;;
17662;SDS011;8950;56.892;15.090;2023-04-24T07:05:58;8.75;;;8.05;;
17662;SDS011;8950;56.892;15.090;2023-04-24T07:08:24;8.45;;;7.75;;
17662;SDS011;8950;56.892;15.090;2023-04-24T07:10:50;8.30;;;7.60;;
17662;SDS011;8950;56.892;15.090;2023-04-24T07:13:17;8.93;;;8.02;;
17662;SDS011;8950;56.892;15.090;2023-04-24T07:15:44;8.07;;;7.35;;
17662;SDS011;8950;56.892;15.090;2023-04-24T07:18:10;8.07;;;7.38;;
17662;SDS011;8950;56.892;15.090;2023-04-24T07:20:37;7.78;;;7.07;;
17662;SDS011;8950;56.892;15.090;2023-04-24T07:23:04;7.43;;;6.82;;
17662;SDS011;8950;56.892;15.090;2023-04-24T07:25:31;9.15;;;6.40;;
17662;SDS011;8950;56.892;15.090;2023-04-24T07:27:57;7.15;;;6.55;;
17662;SDS011;8950;56.892;15.090;2023-04-24T07:30:23;6.20;;;5.78;;
17662;SDS011;8950;56.892;15.090;2023-04-24T07:32:50;6.38;;;5.88;;
17662;SDS011;8950;56.892;15.090;2023-04-24T07:35:16;5.82;;;5.32;;
17662;SDS011;8950;56.892;15.090;2023-04-24T07:37:43;5.75;;;5.35;;
17662;SDS011;8950;56.892;15.090;2023-04-24T07:40:13;5.43;;;5.03;;
17662;SDS011;8950;56.892;15.090;2023-04-24T07:42:39;5.20;;;4.80;;
17662;SDS011;8950;56.892;15.090;2023-04-24T07:45:06;5.55;;;5.05;;
17662;SDS011;8950;56.892;15.090;2023-04-24T07:47:33;4.97;;;4.57;;
17662;SDS011;8950;56.892;15.090;2023-04-24T07:49:59;5.40;;;5.00;;
17662;SDS011;8950;56.892;15.090;2023-04-24T07:52:26;5.45;;;5.05;;
17662;SDS011;8950;56.892;15.090;2023-04-24T07:54:52;6.75;;;5.15;;
17662;SDS011;8950;56.892;15.090;2023-04-24T07:57:24;5.03;;;4.60;;
17662;SDS011;8950;56.892;15.090;2023-04-24T07:59:51;4.93;;;4.53;;
17662;SDS011;8950;56.892;15.090;2023-04-24T08:02:17;5.30;;;4.80;;
17662;SDS011;8950;56.892;15.090;2023-04-24T08:04:44;4.95;;;4.50;;
17662;SDS011;8950;56.892;15.090;2023-04-24T08:07:10;4.93;;;4.50;;
17662;SDS011;8950;56.892;15.090;2023-04-24T08:09:38;4.55;;;4.20;;
17662;SDS011;8950;56.892;15.090;2023-04-24T08:12:04;4.60;;;4.30;;
17662;SDS011;8950;56.892;15.090;2023-04-24T08:14:32;5.00;;;4.60;;
17662;SDS011;8950;56.892;15.090;2023-04-24T08:16:59;5.28;;;4.88;;
17662;SDS011;8950;56.892;15.090;2023-04-24T08:19:26;5.03;;;4.63;;
17662;SDS011;8950;56.892;15.090;2023-04-24T08:21:52;5.30;;;4.65;;
17662;SDS011;8950;56.892;15.090;2023-04-24T08:24:19;5.30;;;4.80;;
17662;SDS011;8950;56.892;15.090;2023-04-24T08:26:45;4.90;;;4.53;;
17662;SDS011;8950;56.892;15.090;2023-04-24T08:29:15;5.15;;;4.75;;
17662;SDS011;8950;56.892;15.090;2023-04-24T08:31:42;4.85;;;4.40;;
17662;SDS011;8950;56.892;15.090;2023-04-24T08:34:09;5.35;;;4.95;;
17662;SDS011;8950;56.892;15.090;2023-04-24T08:36:35;5.55;;;5.00;;
17662;SDS011;8950;56.892;15.090;2023-04-24T08:39:02;5.53;;;5.03;;
17662;SDS011;8950;56.892;15.090;2023-04-24T08:41:28;7.40;;;5.30;;
17662;SDS011;8950;56.892;15.090;2023-04-24T08:43:55;4.75;;;4.35;;
17662;SDS011;8950;56.892;15.090;2023-04-24T08:46:23;5.00;;;4.50;;
17662;SDS011;8950;56.892;15.090;2023-04-24T08:48:51;4.82;;;4.43;;
17662;SDS011;8950;56.892;15.090;2023-04-24T08:51:18;4.60;;;4.30;;
17662;SDS011;8950;56.892;15.090;2023-04-24T08:53:44;5.22;;;4.82;;
17662;SDS011;8950;56.892;15.090;2023-04-24T08:56:11;5.05;;;4.68;;
17662;SDS011;8950;56.892;15.090;2023-04-24T08:58:38;4.60;;;4.25;;
17662;SDS011;8950;56.892;15.090;2023-04-24T09:01:04;8.55;;;4.57;;
17662;SDS011;8950;56.892;15.090;2023-04-24T09:03:31;4.35;;;4.05;;
17662;SDS011;8950;56.892;15.090;2023-04-24T09:06:00;5.28;;;4.10;;
17662;SDS011;8950;56.892;15.090;2023-04-24T09:08:27;3.80;;;3.50;;
17662;SDS011;8950;56.892;15.090;2023-04-24T09:10:54;3.72;;;3.42;;
17662;SDS011;8950;56.892;15.090;2023-04-24T09:13:23;4.00;;;3.70;;
17662;SDS011;8950;56.892;15.090;2023-04-24T09:15:50;4.70;;;4.30;;
17662;SDS011;8950;56.892;15.090;2023-04-24T09:18:17;4.00;;;3.70;;
17662;SDS011;8950;56.892;15.090;2023-04-24T09:21:06;4.28;;;3.92;;
17662;SDS011;8950;56.892;15.090;2023-04-24T09:23:33;3.80;;;3.50;;
17662;SDS011;8950;56.892;15.090;2023-04-24T09:26:00;3.80;;;3.50;;
17662;SDS011;8950;56.892;15.090;2023-04-24T09:28:29;3.47;;;3.20;;
17662;SDS011;8950;56.892;15.090;2023-04-24T09:31:06;3.92;;;3.63;;
17662;SDS011;8950;56.892;15.090;2023-04-24T09:33:34;3.70;;;3.40;;
17662;SDS011;8950;56.892;15.090;2023-04-24T09:36:01;3.28;;;3.08;;
17662;SDS011;8950;56.892;15.090;2023-04-24T09:38:33;3.10;;;2.90;;
17662;SDS011;8950;56.892;15.090;2023-04-24T09:41:00;3.65;;;3.35;;
17662;SDS011;8950;56.892;15.090;2023-04-24T09:43:28;3.63;;;3.38;;
17662;SDS011;8950;56.892;15.090;2023-04-24T09:45:55;3.50;;;3.30;;
17662;SDS011;8950;56.892;15.090;2023-04-24T09:48:29;3.40;;;3.10;;
17662;SDS011;8950;56.892;15.090;2023-04-24T09:50:55;3.72;;;3.38;;
17662;SDS011;8950;56.892;15.090;2023-04-24T09:53:23;3.58;;;3.28;;
17662;SDS011;8950;56.892;15.090;2023-04-24T09:55:51;3.53;;;3.25;;
17662;SDS011;8950;56.892;15.090;2023-04-24T09:58:18;4.25;;;3.15;;
17662;SDS011;8950;56.892;15.090;2023-04-24T10:00:45;7.57;;;3.38;;
17662;SDS011;8950;56.892;15.090;2023-04-24T10:03:12;3.30;;;3.10;;
17662;SDS011;8950;56.892;15.090;2023-04-24T10:05:39;3.20;;;2.75;;
17662;SDS011;8950;56.892;15.090;2023-04-24T10:08:06;3.38;;;3.13;;
17662;SDS011;8950;56.892;15.090;2023-04-24T10:10:33;3.72;;;3.42;;
17662;SDS011;8950;56.892;15.090;2023-04-24T10:13:01;8.85;;;3.47;;
17662;SDS011;8950;56.892;15.090;2023-04-24T10:15:28;3.05;;;2.85;;
17662;SDS011;8950;56.892;15.090;2023-04-24T10:17:55;3.00;;;2.80;;
17662;SDS011;8950;56.892;15.090;2023-04-24T10:20:24;2.97;;;2.78;;
17662;SDS011;8950;56.892;15.090;2023-04-24T10:22:51;3.25;;;3.00;;
17662;SDS011;8950;56.892;15.090;2023-04-24T10:25:19;3.33;;;3.05;;
17662;SDS011;8950;56.892;15.090;2023-04-24T10:27:47;2.92;;;2.72;;
17662;SDS011;8950;56.892;15.090;2023-04-24T10:30:15;3.10;;;2.90;;
17662;SDS011;8950;56.892;15.090;2023-04-24T10:32:41;2.67;;;2.47;;
17662;SDS011;8950;56.892;15.090;2023-04-24T10:35:08;2.63;;;2.42;;
17662;SDS011;8950;56.892;15.090;2023-04-24T10:37:35;2.90;;;2.70;;
17662;SDS011;8950;56.892;15.090;2023-04-24T10:40:02;3.03;;;2.72;;
17662;SDS011;8950;56.892;15.090;2023-04-24T10:42:29;2.95;;;2.65;;
17662;SDS011;8950;56.892;15.090;2023-04-24T10:44:55;7.82;;;2.90;;
17662;SDS011;8950;56.892;15.090;2023-04-24T10:47:24;2.50;;;2.30;;
17662;SDS011;8950;56.892;15.090;2023-04-24T10:49:51;36.38;;;6.43;;
17662;SDS011;8950;56.892;15.090;2023-04-24T10:52:17;3.85;;;2.78;;
17662;SDS011;8950;56.892;15.090;2023-04-24T10:54:46;2.75;;;2.55;;
17662;SDS011;8950;56.892;15.090;2023-04-24T10:57:26;3.67;;;2.38;;
17662;SDS011;8950;56.892;15.090;2023-04-24T11:00:09;2.35;;;2.17;;
17662;SDS011;8950;56.892;15.090;2023-04-24T11:02:38;2.47;;;2.30;;
17662;SDS011;8950;56.892;15.090;2023-04-24T11:05:05;2.50;;;2.30;;
17662;SDS011;8950;56.892;15.090;2023-04-24T11:07:39;2.30;;;2.20;;
17662;SDS011;8950;56.892;15.090;2023-04-24T11:10:25;2.90;;;2.63;;
17662;SDS011;8950;56.892;15.090;2023-04-24T11:12:52;2.47;;;2.22;;
17662;SDS011;8950;56.892;15.090;2023-04-24T11:15:18;2.17;;;2.08;;
17662;SDS011;8950;56.892;15.090;2023-04-24T11:17:46;2.25;;;2.05;;
17662;SDS011;8950;56.892;15.090;2023-04-24T11:20:17;2.92;;;2.10;;
17662;SDS011;8950;56.892;15.090;2023-04-24T11:22:43;10.13;;;3.05;;
17662;SDS011;8950;56.892;15.090;2023-04-24T11:25:10;14.93;;;3.28;;
17662;SDS011;8950;56.892;15.090;2023-04-24T11:27:38;2.80;;;2.10;;
17662;SDS011;8950;56.892;15.090;2023-04-24T11:30:05;2.00;;;1.90;;
17662;SDS011;8950;56.892;15.090;2023-04-24T11:32:34;2.55;;;2.10;;
17662;SDS011;8950;56.892;15.090;2023-04-24T11:35:03;2.25;;;2.15;;
17662;SDS011;8950;56.892;15.090;2023-04-24T11:37:33;2.53;;;2.00;;
17662;SDS011;8950;56.892;15.090;2023-04-24T11:39:59;2.00;;;1.90;;
17662;SDS011;8950;56.892;15.090;2023-04-24T11:42:26;2.13;;;2.00;;
17662;SDS011;8950;56.892;15.090;2023-04-24T11:44:54;2.00;;;1.90;;
17662;SDS011;8950;56.892;15.090;2023-04-24T11:47:27;2.08;;;1.98;;
17662;SDS011;8950;56.892;15.090;2023-04-24T11:49:53;2.08;;;1.98;;
17662;SDS011;8950;56.892;15.090;2023-04-24T11:52:21;2.20;;;1.95;;
17662;SDS011;8950;56.892;15.090;2023-04-24T11:54:48;4.13;;;2.40;;
17662;SDS011;8950;56.892;15.090;2023-04-24T11:57:15;1.88;;;1.77;;
17662;SDS011;8950;56.892;15.090;2023-04-24T11:59:41;2.13;;;1.92;;
17662;SDS011;8950;56.892;15.090;2023-04-24T12:02:08;1.85;;;1.75;;
17662;SDS011;8950;56.892;15.090;2023-04-24T12:04:38;2.03;;;1.92;;
17662;SDS011;8950;56.892;15.090;2023-04-24T12:07:04;2.45;;;1.77;;
17662;SDS011;8950;56.892;15.090;2023-04-24T12:09:43;2.00;;;1.83;;
17662;SDS011;8950;56.892;15.090;2023-04-24T12:12:10;2.35;;;2.13;;
17662;SDS011;8950;56.892;15.090;2023-04-24T12:14:43;2.30;;;2.10;;
17662;SDS011;8950;56.892;15.090;2023-04-24T12:17:10;2.22;;;1.92;;
17662;SDS011;8950;56.892;15.090;2023-04-24T12:19:36;2.10;;;2.00;;
17662;SDS011;8950;56.892;15.090;2023-04-24T12:22:03;5.30;;;2.00;;
17662;SDS011;8950;56.892;15.090;2023-04-24T12:24:30;1.95;;;1.85;;
17662;SDS011;8950;56.892;15.090;2023-04-24T12:26:58;1.90;;;1.80;;
17662;SDS011;8950;56.892;15.090;2023-04-24T12:29:26;2.10;;;1.75;;
17662;SDS011;8950;56.892;15.090;2023-04-24T12:31:53;2.05;;;1.90;;
17662;SDS011;8950;56.892;15.090;2023-04-24T12:34:20;1.83;;;1.73;;
17662;SDS011;8950;56.892;15.090;2023-04-24T12:36:47;2.78;;;1.90;;
17662;SDS011;8950;56.892;15.090;2023-04-24T12:39:16;3.70;;;2.03;;
17662;SDS011;8950;56.892;15.090;2023-04-24T12:41:50;2.17;;;1.98;;
17662;SDS011;8950;56.892;15.090;2023-04-24T12:44:18;2.28;;;2.08;;
17662;SDS011;8950;56.892;15.090;2023-04-24T12:46:46;3.38;;;2.05;;
17662;SDS011;8950;56.892;15.090;2023-04-24T12:49:12;3.38;;;2.28;;
17662;SDS011;8950;56.892;15.090;2023-04-24T12:51:38;4.55;;;1.90;;
17662;SDS011;8950;56.892;15.090;2023-04-24T12:54:05;1.80;;;1.70;;
17662;SDS011;8950;56.892;15.090;2023-04-24T12:56:32;2.75;;;2.00;;
17662;SDS011;8950;56.892;15.090;2023-04-24T12:58:58;2.65;;;1.90;;
17662;SDS011;8950;56.892;15.090;2023-04-24T13:01:26;1.90;;;1.80;;
17662;SDS011;8950;56.892;15.090;2023-04-24T13:03:52;2.13;;;1.92;;
17662;SDS011;8950;56.892;15.090;2023-04-24T13:06:19;3.35;;;2.00;;
17662;SDS011;8950;56.892;15.090;2023-04-24T13:08:46;7.53;;;2.47;;
17662;SDS011;8950;56.892;15.090;2023-04-24T13:11:13;2.38;;;2.15;;
17662;SDS011;8950;56.892;15.090;2023-04-24T13:13:40;2.03;;;1.92;;
17662;SDS011;8950;56.892;15.090;2023-04-24T13:16:06;2.28;;;2.13;;
17662;SDS011;8950;56.892;15.090;2023-04-24T13:18:34;2.30;;;2.20;;
17662;SDS011;8950;56.892;15.090;2023-04-24T13:21:01;1.95;;;1.85;;
17662;SDS011;8950;56.892;15.090;2023-04-24T13:23:27;2.10;;;2.00;;
17662;SDS011;8950;56.892;15.090;2023-04-24T13:25:54;2.33;;;2.17;;
17662;SDS011;8950;56.892;15.090;2023-04-24T13:28:23;9.77;;;2.30;;
17662;SDS011;8950;56.892;15.090;2023-04-24T13:30:50;2.50;;;2.30;;
17662;SDS011;8950;56.892;15.090;2023-04-24T13:33:16;2.05;;;1.95;;
17662;SDS011;8950;56.892;15.090;2023-04-24T13:35:44;2.25;;;2.15;;
17662;SDS011;8950;56.892;15.090;2023-04-24T13:38:11;2.17;;;2.08;;
17662;SDS011;8950;56.892;15.090;2023-04-24T13:40:37;2.13;;;2.03;;
17662;SDS011;8950;56.892;15.090;2023-04-24T13:43:03;2.45;;;2.25;;
17662;SDS011;8950;56.892;15.090;2023-04-24T13:45:30;2.00;;;1.90;;
17662;SDS011;8950;56.892;15.090;2023-04-24T13:47:56;2.25;;;2.10;;
17662;SDS011;8950;56.892;15.090;2023-04-24T13:50:23;2.20;;;2.00;;
17662;SDS011;8950;56.892;15.090;2023-04-24T13:52:51;2.22;;;2.00;;
17662;SDS011;8950;56.892;15.090;2023-04-24T13:55:17;3.55;;;2.10;;
17662;SDS011;8950;56.892;15.090;2023-04-24T13:57:44;7.38;;;2.63;;
17662;SDS011;8950;56.892;15.090;2023-04-24T14:00:10;10.73;;;2.65;;
17662;SDS011;8950;56.892;15.090;2023-04-24T14:02:38;2.97;;;2.00;;
17662;SDS011;8950;56.892;15.090;2023-04-24T14:05:05;2.20;;;1.85;;
17662;SDS011;8950;56.892;15.090;2023-04-24T14:07:31;2.20;;;2.05;;
17662;SDS011;8950;56.892;15.090;2023-04-24T14:09:59;2.13;;;1.92;;
17662;SDS011;8950;56.892;15.090;2023-04-24T14:12:25;2.10;;;1.90;;
17662;SDS011;8950;56.892;15.090;2023-04-24T14:14:52;2.10;;;1.92;;
17662;SDS011;8950;56.892;15.090;2023-04-24T14:17:18;2.25;;;2.10;;
17662;SDS011;8950;56.892;15.090;2023-04-24T14:19:45;2.40;;;2.20;;
17662;SDS011;8950;56.892;15.090;2023-04-24T14:22:11;6.38;;;2.50;;
17662;SDS011;8950;56.892;15.090;2023-04-24T14:24:38;2.40;;;2.20;;
17662;SDS011;8950;56.892;15.090;2023-04-24T14:27:05;2.42;;;2.22;;
17662;SDS011;8950;56.892;15.090;2023-04-24T14:29:32;2.95;;;2.00;;
17662;SDS011;8950;56.892;15.090;2023-04-24T14:31:59;2.10;;;2.00;;
17662;SDS011;8950;56.892;15.090;2023-04-24T14:34:25;3.30;;;2.10;;
17662;SDS011;8950;56.892;15.090;2023-04-24T14:36:52;2.20;;;2.00;;
17662;SDS011;8950;56.892;15.090;2023-04-24T14:39:18;2.00;;;1.90;;
17662;SDS011;8950;56.892;15.090;2023-04-24T14:41:44;2.00;;;1.90;;
17662;SDS011;8950;56.892;15.090;2023-04-24T14:44:12;2.20;;;2.00;;